CheckWX is a tool to help pilots better visualize weather data.  It is not intended as a substitute for an official pre-flight weather briefing.

23:21:50 UTC

KLUD METAR
Decatur Municipal Airport
Decatur, Texas, USA
Current

7 mins ago

KLUD 012315Z AUTO 15010G17KT 10SM CLR 19/11 A2986 RMK AO2 T01920108
Observed
Apr-1 @ 23:15 UTC
Wind
  • 150° at 10 KTS
  • Gusting to 17 KTS
Visibility
10 SM
Flight Rules
VFR
Cloud Levels
  • Clear skies
Temperature
19°C / 66°F
Dewpoint
11°C / 52°F
Humidity
60%
Altimeter
29.86" Hg
Pressure
1011.22 hPa
Previous

27 mins ago

KLUD 012255Z AUTO 14014G18KT 10SM CLR 19/10 A2986 RMK AO2 T01920103
Observed
Apr-1 @ 22:55 UTC
Wind
  • 140° at 14 KTS
  • Gusting to 18 KTS
Visibility
10 SM
Flight Rules
VFR
Cloud Levels
  • Clear skies
Temperature
19°C / 66°F
Dewpoint
10°C / 50°F
Humidity
56%
Altimeter
29.86" Hg
Pressure
1011.22 hPa
Previous

47 mins ago

KLUD 012235Z AUTO 14013G17KT 10SM CLR 19/10 A2987 RMK AO2 T01930100
Observed
Apr-1 @ 22:35 UTC
Wind
  • 140° at 13 KTS
  • Gusting to 17 KTS
Visibility
10 SM
Flight Rules
VFR
Cloud Levels
  • Clear skies
Temperature
19°C / 66°F
Dewpoint
10°C / 50°F
Humidity
56%
Altimeter
29.87" Hg
Pressure
1011.52 hPa